Time;durP1;ratioP1;P1;durP2;ratioP2;P2;SDS_P1;SDS_P2;PMS_P1;PMS_P2;Temp;Humidity;BMP_temperature;BMP_pressure;BME280_temperature;BME280_humidity;BME280_pressure;Samples;Min_cycle;Max_cycle;Signal;HPM_P1;HPM_P2
2021/09/07 00:01:56;;;;;;;;;12.00;8.75;;;;;;;;6307807;22;46925;-80
2021/09/07 00:04:28;;;;;;;;;10.50;9.00;;;;;;;;6307319;22;47059;-80
2021/09/07 00:06:54;;;;;;;;;9.25;8.00;;;;;;;;6308028;22;46947;-80
2021/09/07 00:09:19;;;;;;;;;13.50;9.25;;;;;;;;6307260;22;46878;-79
2021/09/07 00:11:47;;;;;;;;;8.00;8.00;;;;;;;;6279481;22;47298;-79
2021/09/07 00:14:13;;;;;;;;;9.50;8.75;;;;;;;;6307111;22;46955;-80
2021/09/07 00:16:38;;;;;;;;;9.75;8.75;;;;;;;;6286063;22;46884;-80
2021/09/07 00:19:03;;;;;;;;;8.00;7.50;;;;;;;;6338661;22;47814;-80
2021/09/07 00:21:29;;;;;;;;;6.75;6.00;;;;;;;;6339021;22;46855;-80
2021/09/07 00:23:54;;;;;;;;;7.75;7.25;;;;;;;;6337115;22;46852;-80
2021/09/07 00:26:19;;;;;;;;;10.25;9.75;;;;;;;;6336795;22;46956;-80
2021/09/07 00:28:45;;;;;;;;;10.75;8.00;;;;;;;;6338698;22;47056;-80
2021/09/07 00:31:10;;;;;;;;;8.25;8.25;;;;;;;;6338524;22;46921;-80
2021/09/07 00:33:38;;;;;;;;;9.75;8.50;;;;;;;;6339150;22;46798;-80
2021/09/07 00:36:03;;;;;;;;;10.00;9.50;;;;;;;;6338861;22;46890;-80
2021/09/07 00:38:29;;;;;;;;;8.25;7.75;;;;;;;;6336510;22;48593;-80
2021/09/07 00:40:54;;;;;;;;;7.25;6.50;;;;;;;;6338841;22;46874;-80
2021/09/07 00:43:20;;;;;;;;;8.75;7.00;;;;;;;;6338882;22;47427;-80
2021/09/07 00:45:45;;;;;;;;;8.00;7.00;;;;;;;;6336464;22;47185;-80
2021/09/07 00:48:11;;;;;;;;;7.50;6.50;;;;;;;;6338489;22;46839;-79
2021/09/07 00:50:36;;;;;;;;;7.50;7.00;;;;;;;;6338263;22;46993;-79
2021/09/07 00:53:02;;;;;;;;;5.00;5.00;;;;;;;;6338953;22;46950;-80
2021/09/07 00:55:29;;;;;;;;;9.25;8.75;;;;;;;;6339079;22;46799;-80
2021/09/07 00:57:55;;;;;;;;;11.00;10.25;;;;;;;;6338505;22;46911;-80
2021/09/07 01:00:21;;;;;;;;;9.75;7.00;;;;;;;;6338752;22;46880;-80
2021/09/07 01:02:46;;;;;;;;;6.75;6.00;;;;;;;;6339348;22;46823;-80
2021/09/07 01:05:12;;;;;;;;;10.25;6.75;;;;;;;;6339000;22;46731;-79
2021/09/07 01:07:37;;;;;;;;;8.00;8.00;;;;;;;;6338810;22;46860;-80
2021/09/07 01:10:04;;;;;;;;;13.75;10.00;;;;;;;;6338963;22;46778;-80
2021/09/07 01:12:29;;;;;;;;;6.00;6.00;;;;;;;;6338905;22;46959;-80
2021/09/07 01:14:55;;;;;;;;;8.25;7.25;;;;;;;;6339105;22;46951;-79
2021/09/07 01:17:20;;;;;;;;;4.75;4.75;;;;;;;;6338036;22;47842;-80
2021/09/07 01:19:47;;;;;;;;;9.25;9.00;;;;;;;;6338692;22;46843;-80
2021/09/07 01:22:13;;;;;;;;;9.75;9.00;;;;;;;;6339053;22;46769;-80
2021/09/07 01:24:38;;;;;;;;;8.50;8.25;;;;;;;;6339350;22;46862;-80
2021/09/07 01:27:07;;;;;;;;;9.75;9.00;;;;;;;;6338686;22;48022;-80
2021/09/07 01:29:34;;;;;;;;;8.00;8.00;;;;;;;;6336476;22;46698;-79
2021/09/07 01:31:59;;;;;;;;;13.00;11.00;;;;;;;;6338889;22;46921;-79
2021/09/07 01:34:25;;;;;;;;;5.00;4.00;;;;;;;;6338919;22;46643;-79
2021/09/07 01:36:51;;;;;;;;;12.00;9.00;;;;;;;;6338935;22;47750;-79
2021/09/07 01:39:19;;;;;;;;;10.75;9.00;;;;;;;;6336617;22;46717;-80
2021/09/07 01:41:44;;;;;;;;;8.25;7.75;;;;;;;;6338528;22;46918;-79
2021/09/07 01:44:12;;;;;;;;;9.00;9.00;;;;;;;;6336666;22;46914;-80
2021/09/07 01:46:38;;;;;;;;;7.75;7.75;;;;;;;;6338352;22;46881;-80
2021/09/07 01:49:05;;;;;;;;;9.00;9.00;;;;;;;;6338463;22;47222;-79
2021/09/07 01:51:33;;;;;;;;;8.75;7.75;;;;;;;;6338536;22;47007;-80
2021/09/07 01:53:59;;;;;;;;;11.50;9.00;;;;;;;;6339048;22;47013;-80
2021/09/07 01:56:24;;;;;;;;;9.25;8.50;;;;;;;;6338534;22;47549;-79
2021/09/07 01:58:50;;;;;;;;;7.75;7.75;;;;;;;;6338094;22;46921;-80
2021/09/07 02:01:15;;;;;;;;;8.25;8.25;;;;;;;;6336307;22;46829;-80
2021/09/07 02:03:40;;;;;;;;;13.50;9.50;;;;;;;;6338961;22;47006;-80
2021/09/07 02:06:08;;;;;;;;;7.75;6.25;;;;;;;;6336113;22;48342;-79
2021/09/07 02:08:33;;;;;;;;;12.00;9.75;;;;;;;;6338510;22;46948;-80
2021/09/07 02:10:58;;;;;;;;;9.75;7.50;;;;;;;;6338265;22;47160;-79
2021/09/07 02:13:24;;;;;;;;;7.50;6.75;;;;;;;;6336234;22;46859;-79
2021/09/07 02:15:49;;;;;;;;;10.75;7.25;;;;;;;;6338366;22;47061;-80
2021/09/07 02:28:08;;;;;;;;;9.25;8.00;;;;;;;;6139917;23;47671;-80
2021/09/07 02:30:33;;;;;;;;;13.50;10.00;;;;;;;;6181266;23;46953;-80
2021/09/07 02:33:19;;;;;;;;;7.25;6.75;;;;;;;;6279863;22;46726;-81
2021/09/07 02:36:23;;;;;;;;;;;;;;;;;;;;;
2021/09/07 02:38:51;;;;;;;;;11.50;10.25;;;;;;;;6336812;22;76855;-81
2021/09/07 02:44:28;;;;;;;;;10.75;8.50;;;;;;;;6281773;22;46736;-82
2021/09/07 03:09:42;;;;;;;;;;;;;;;;;;;;;
2021/09/07 03:11:50;;;;;;;;;11.75;10.25;;;;;;;;6053732;23;47184;-81
2021/09/07 03:18:07;;;;;;;;;9.50;9.50;;;;;;;;6082618;23;47032;-82
2021/09/07 03:27:40;;;;;;;;;;;;;;;;;;;;;
2021/09/07 03:30:17;;;;;;;;;;;;;;;;;;;;;
2021/09/07 03:32:45;;;;;;;;;12.50;8.00;;;;;;;;6181248;23;71726;-81
2021/09/07 03:35:49;;;;;;;;;;;;;;;;;;;;;
2021/09/07 03:42:00;;;;;;;;;;;;;;;;;;;;;
2021/09/07 03:44:30;;;;;;;;;10.00;9.25;;;;;;;;6180897;23;71626;-81
2021/09/07 03:47:25;;;;;;;;;;;;;;;;;;;;;
2021/09/07 03:50:28;;;;;;;;;;;;;;;;;;;;;
2021/09/07 03:53:06;;;;;;;;;;;;;;;;;;;;;
2021/09/07 03:55:37;;;;;;;;;14.00;12.75;;;;;;;;6306158;22;74050;-81
2021/09/07 03:58:12;;;;;;;;;13.00;12.00;;;;;;;;6307762;22;46870;-81
2021/09/07 04:00:49;;;;;;;;;;;;;;;;;;;;;
2021/09/07 04:03:18;;;;;;;;;13.25;11.25;;;;;;;;6306724;22;75347;-80
2021/09/07 04:09:19;;;;;;;;;;;;;;;;;;;;;
2021/09/07 04:11:52;;;;;;;;;12.75;12.25;;;;;;;;6305539;22;77504;-81
2021/09/07 04:14:53;;;;;;;;;;;;;;;;;;;;;
2021/09/07 04:17:49;;;;;;;;;;;;;;;;;;;;;
2021/09/07 04:20:48;;;;;;;;;;;;;;;;;;;;;
2021/09/07 04:27:03;;;;;;;;;;;;;;;;;;;;;
2021/09/07 04:29:59;;;;;;;;;10.50;10.50;;;;;;;;6278338;22;72330;-81
2021/09/07 04:32:48;;;;;;;;;13.25;11.50;;;;;;;;6323473;22;47033;-81
2021/09/07 04:35:14;;;;;;;;;15.25;13.25;;;;;;;;6310104;22;49532;-80
2021/09/07 04:37:39;;;;;;;;;13.75;13.75;;;;;;;;6339336;22;46834;-79
2021/09/07 04:40:05;;;;;;;;;10.50;10.25;;;;;;;;6339346;22;46934;-80
2021/09/07 04:42:36;;;;;;;;;14.75;12.75;;;;;;;;6310935;22;46909;-80
2021/09/07 04:45:02;;;;;;;;;13.75;11.75;;;;;;;;6338895;22;48184;-79
2021/09/07 04:47:29;;;;;;;;;17.25;14.50;;;;;;;;6339148;22;46936;-79
2021/09/07 04:49:55;;;;;;;;;13.00;12.50;;;;;;;;6338549;22;46938;-79
2021/09/07 04:52:20;;;;;;;;;15.50;13.75;;;;;;;;6339431;22;46878;-79
2021/09/07 04:54:45;;;;;;;;;14.50;11.50;;;;;;;;6339552;22;47810;-80
2021/09/07 05:45:15;;;;;;;;;16.75;13.00;;;;;;;;6271177;22;47185;-82
2021/09/07 05:47:41;;;;;;;;;13.75;13.00;;;;;;;;6310561;22;46985;-81
2021/09/07 05:50:07;;;;;;;;;16.00;14.25;;;;;;;;6338795;22;46869;-81
2021/09/07 05:52:35;;;;;;;;;16.50;13.50;;;;;;;;6338295;22;48253;-86
2021/09/07 05:55:00;;;;;;;;;17.00;15.25;;;;;;;;6308853;22;48148;-86
2021/09/07 05:57:26;;;;;;;;;15.75;13.50;;;;;;;;6338689;22;46867;-84
2021/09/07 05:59:57;;;;;;;;;14.25;12.75;;;;;;;;6339013;22;46667;-81
2021/09/07 06:02:25;;;;;;;;;13.75;12.50;;;;;;;;6338596;22;47752;-82
2021/09/07 06:05:00;;;;;;;;;15.00;12.25;;;;;;;;6337414;22;46757;-85
2021/09/07 06:07:35;;;;;;;;;;;;;;;;;;;;;
2021/09/07 06:10:01;;;;;;;;;13.50;12.00;;;;;;;;6337078;22;70266;-80
2021/09/07 06:31:56;;;;;;;;;16.50;15.00;;;;;;;;6072984;23;46874;-83
2021/09/07 06:35:01;;;;;;;;;;;;;;;;;;;;;
2021/09/07 06:38:05;;;;;;;;;;;;;;;;;;;;;
2021/09/07 06:41:16;;;;;;;;;;;;;;;;;;;;;
2021/09/07 06:47:32;;;;;;;;;11.75;10.75;;;;;;;;6032027;23;47235;-84
2021/09/07 06:50:00;;;;;;;;;14.50;10.25;;;;;;;;6017743;23;46920;-82
2021/09/07 06:52:28;;;;;;;;;13.50;12.00;;;;;;;;6087887;23;46951;-82
2021/09/07 06:54:55;;;;;;;;;16.00;12.00;;;;;;;;6192567;22;46945;-82
2021/09/07 06:57:25;;;;;;;;;12.25;12.00;;;;;;;;6308182;22;46699;-82
2021/09/07 06:59:54;;;;;;;;;12.50;11.50;;;;;;;;6301645;22;48462;-82
2021/09/07 07:02:19;;;;;;;;;12.50;10.25;;;;;;;;6339607;22;46836;-82
2021/09/07 07:05:15;;;;;;;;;;;;;;;;;;;;;
2021/09/07 07:11:18;;;;;;;;;13.50;13.00;;;;;;;;6288421;22;47027;-81
2021/09/07 07:14:20;;;;;;;;;10.25;9.75;;;;;;;;6273376;22;46854;-81
2021/09/07 07:17:05;;;;;;;;;14.25;11.75;;;;;;;;6273711;22;47096;-81
2021/09/07 07:19:57;;;;;;;;;10.75;9.50;;;;;;;;6322268;22;47267;-81
2021/09/07 07:37:57;;;;;;;;;11.75;10.50;;;;;;;;6317521;22;46976;-82
2021/09/07 07:40:23;;;;;;;;;14.25;11.50;;;;;;;;6338278;22;47157;-81
2021/09/07 07:42:49;;;;;;;;;12.25;10.25;;;;;;;;6310956;22;47122;-81
2021/09/07 07:45:14;;;;;;;;;15.50;14.00;;;;;;;;6348363;22;47055;-82
2021/09/07 07:48:02;;;;;;;;;14.00;11.25;;;;;;;;6371370;22;46899;-82
2021/09/07 07:50:45;;;;;;;;;9.75;7.25;;;;;;;;6370867;22;46696;-82
2021/09/07 16:41:57;;;;;;;;;;;;;;;;;;;;;
2021/09/07 17:13:26;;;;;;;;;;;;;;;;;;;;;
2021/09/07 17:58:01;;;;;;;;;5.75;5.50;;;;;;;;6257244;22;46591;-81
2021/09/07 18:00:41;;;;;;;;;5.00;5.00;;;;;;;;6370973;22;46958;-86
2021/09/07 18:03:08;;;;;;;;;5.50;5.25;;;;;;;;6341534;22;48234;-84
2021/09/07 18:08:50;;;;;;;;;5.50;5.00;;;;;;;;6316822;22;47039;-82
2021/09/07 18:11:17;;;;;;;;;5.00;5.00;;;;;;;;6370680;22;46920;-82
2021/09/07 18:13:43;;;;;;;;;4.75;4.75;;;;;;;;6341478;22;48643;-86
2021/09/07 18:16:11;;;;;;;;;6.75;5.25;;;;;;;;6370899;22;46855;-88
2021/09/07 18:18:37;;;;;;;;;12.75;7.00;;;;;;;;6341827;22;47014;-82
2021/09/07 18:21:02;;;;;;;;;9.00;6.00;;;;;;;;6342776;22;46985;-83
2021/09/07 18:23:55;;;;;;;;;5.25;5.00;;;;;;;;6370487;22;47486;-81
2021/09/07 18:26:49;;;;;;;;;;;;;;;;;;;;;
2021/09/07 18:29:33;;;;;;;;;;;;;;;;;;;;;
2021/09/07 18:32:24;;;;;;;;;6.75;6.75;;;;;;;;6369558;22;68868;-82
2021/09/07 18:34:52;;;;;;;;;7.00;6.00;;;;;;;;6362084;22;47094;-81
2021/09/07 18:37:20;;;;;;;;;5.25;5.25;;;;;;;;6370125;22;46966;-80
2021/09/07 18:40:22;;;;;;;;;;;;;;;;;;;;;
2021/09/07 18:46:44;;;;;;;;;;;;;;;;;;;;;
2021/09/07 18:49:18;;;;;;;;;6.25;5.00;;;;;;;;6301688;22;74788;-82
2021/09/07 19:02:04;;;;;;;;;;;;;;;;;;;;;
2021/09/07 19:07:48;;;;;;;;;7.75;7.75;;;;;;;;6034971;23;47224;-81
2021/09/07 19:10:14;;;;;;;;;6.00;6.00;;;;;;;;6086427;23;48326;-81
2021/09/07 19:12:57;;;;;;;;;10.25;8.75;;;;;;;;6188054;22;46822;-82
2021/09/07 19:15:51;;;;;;;;;7.25;7.00;;;;;;;;6273238;22;46955;-82
2021/09/07 19:24:48;;;;;;;;;9.25;8.75;;;;;;;;6207092;22;47127;-81
2021/09/07 19:27:16;;;;;;;;;10.75;9.00;;;;;;;;6211801;22;46881;-81
2021/09/07 19:30:01;;;;;;;;;16.50;12.00;;;;;;;;6211408;22;47033;-83
2021/09/07 19:32:28;;;;;;;;;13.75;13.75;;;;;;;;6283880;22;47017;-84
2021/09/07 19:41:56;;;;;;;;;;;;;;;;;;;;;
2021/09/07 20:09:44;;;;;;;;;10.75;8.50;;;;;;;;5977357;23;47183;-84
2021/09/07 20:12:20;;;;;;;;;7.25;7.25;;;;;;;;5971663;23;47604;-84
2021/09/07 20:27:59;;;;;;;;;9.50;7.00;;;;;;;;5836689;24;47013;-86
2021/09/07 20:31:04;;;;;;;;;13.75;11.75;;;;;;;;5862864;24;47349;-86
2021/09/07 20:33:41;;;;;;;;;12.75;11.50;;;;;;;;5889052;24;49738;-85
2021/09/07 20:36:07;;;;;;;;;11.00;9.50;;;;;;;;5919478;23;47862;-83
2021/09/07 20:38:32;;;;;;;;;15.25;13.50;;;;;;;;6091999;23;46856;-86
2021/09/07 20:41:02;;;;;;;;;15.50;10.50;;;;;;;;6128425;23;47153;-86
2021/09/07 20:46:52;;;;;;;;;;;;;;;;;;;;;
2021/09/07 20:49:25;;;;;;;;;14.75;11.00;;;;;;;;6306688;22;73539;-85
2021/09/07 20:51:50;;;;;;;;;9.00;8.00;;;;;;;;6308338;22;47240;-83
2021/09/07 20:54:18;;;;;;;;;10.75;10.25;;;;;;;;6280038;22;48203;-84
2021/09/07 21:28:06;;;;;;;;;6.50;6.00;;;;;;;;6091453;23;46864;-85
2021/09/07 21:30:36;;;;;;;;;8.50;8.00;;;;;;;;6151241;23;48089;-87
2021/09/07 21:33:04;;;;;;;;;9.25;9.25;;;;;;;;6191205;22;47881;-87
2021/09/07 21:35:32;;;;;;;;;12.00;10.25;;;;;;;;6339043;22;46821;-86
2021/09/07 21:37:57;;;;;;;;;9.25;8.75;;;;;;;;6311171;22;47130;-86
2021/09/07 21:40:31;;;;;;;;;11.00;8.50;;;;;;;;6310748;22;48374;-85
2021/09/07 21:43:04;;;;;;;;;9.25;9.25;;;;;;;;6309488;22;47021;-86
2021/09/07 21:45:54;;;;;;;;;9.00;8.50;;;;;;;;6339122;22;46805;-86
2021/09/07 21:48:23;;;;;;;;;8.00;8.00;;;;;;;;6295584;22;47098;-86
2021/09/07 21:50:51;;;;;;;;;9.00;7.00;;;;;;;;6339139;22;47699;-87
2021/09/07 21:53:21;;;;;;;;;10.50;10.50;;;;;;;;6310758;22;47462;-85
2021/09/07 21:56:13;;;;;;;;;;;;;;;;;;;;;
2021/09/07 21:58:50;;;;;;;;;9.50;8.50;;;;;;;;6336403;22;67576;-85
2021/09/07 22:01:18;;;;;;;;;8.00;7.00;;;;;;;;6338866;22;47058;-84
2021/09/07 22:03:46;;;;;;;;;10.00;8.00;;;;;;;;6304519;22;46995;-84
2021/09/07 22:06:11;;;;;;;;;10.25;7.25;;;;;;;;6307356;22;46925;-84
2021/09/07 22:08:36;;;;;;;;;9.25;7.50;;;;;;;;6305416;22;46785;-84
2021/09/07 22:11:02;;;;;;;;;9.75;9.75;;;;;;;;6306931;22;46849;-84
2021/09/07 22:13:27;;;;;;;;;9.75;7.25;;;;;;;;6307064;22;46855;-83
2021/09/07 22:15:53;;;;;;;;;10.25;7.75;;;;;;;;6306337;22;46923;-83
2021/09/07 22:18:18;;;;;;;;;9.50;8.00;;;;;;;;6307066;22;47225;-83
2021/09/07 22:20:44;;;;;;;;;7.50;7.00;;;;;;;;6307230;22;47141;-83
2021/09/07 22:23:09;;;;;;;;;8.50;8.50;;;;;;;;6306857;22;46924;-83
2021/09/07 22:25:35;;;;;;;;;8.25;7.00;;;;;;;;6305026;22;46686;-83
2021/09/07 22:28:01;;;;;;;;;6.00;6.00;;;;;;;;6307273;22;47252;-83
2021/09/07 22:30:26;;;;;;;;;9.00;7.50;;;;;;;;6307260;22;47218;-83
2021/09/07 22:32:51;;;;;;;;;9.25;8.75;;;;;;;;6306854;22;46817;-83
2021/09/07 22:35:17;;;;;;;;;10.50;7.75;;;;;;;;6307287;22;46837;-83
2021/09/07 22:37:42;;;;;;;;;8.50;8.50;;;;;;;;6307177;22;46970;-83
2021/09/07 22:40:08;;;;;;;;;9.75;9.00;;;;;;;;6307191;22;46963;-83
2021/09/07 22:42:35;;;;;;;;;10.75;7.00;;;;;;;;6304710;22;47030;-83
2021/09/07 22:45:08;;;;;;;;;11.00;9.25;;;;;;;;6307016;22;46907;-83
2021/09/07 22:47:36;;;;;;;;;11.75;10.50;;;;;;;;6306685;22;46951;-83
2021/09/07 22:50:04;;;;;;;;;8.00;8.00;;;;;;;;6306700;22;46895;-83
2021/09/07 22:52:32;;;;;;;;;8.25;8.25;;;;;;;;6306895;22;46868;-83
2021/09/07 22:54:58;;;;;;;;;9.00;7.00;;;;;;;;6307266;22;46851;-83
2021/09/07 22:57:23;;;;;;;;;10.50;9.25;;;;;;;;6307153;22;46704;-84
2021/09/07 22:59:48;;;;;;;;;10.50;10.25;;;;;;;;6307252;22;47736;-84
2021/09/07 23:02:14;;;;;;;;;8.25;7.00;;;;;;;;6305093;22;47290;-83
2021/09/07 23:04:39;;;;;;;;;9.00;9.00;;;;;;;;6333056;22;46962;-83
2021/09/07 23:07:05;;;;;;;;;11.00;9.75;;;;;;;;6338555;22;47130;-83
2021/09/07 23:09:31;;;;;;;;;8.25;7.00;;;;;;;;6338155;22;47802;-83
2021/09/07 23:11:56;;;;;;;;;9.75;9.00;;;;;;;;6338560;22;46968;-83
2021/09/07 23:14:22;;;;;;;;;12.00;8.75;;;;;;;;6338349;22;46742;-84
2021/09/07 23:16:47;;;;;;;;;7.50;7.50;;;;;;;;6338341;22;46770;-84
2021/09/07 23:19:12;;;;;;;;;10.75;10.75;;;;;;;;6337863;22;46959;-84
2021/09/07 23:21:38;;;;;;;;;10.50;9.25;;;;;;;;6338396;22;46756;-84
2021/09/07 23:24:04;;;;;;;;;14.50;9.50;;;;;;;;6338339;22;46856;-84
2021/09/07 23:26:31;;;;;;;;;12.25;10.00;;;;;;;;6338787;22;47034;-83
2021/09/07 23:28:57;;;;;;;;;10.00;10.00;;;;;;;;6339380;22;46994;-83
2021/09/07 23:31:22;;;;;;;;;11.25;8.00;;;;;;;;6311143;22;47023;-83
2021/09/07 23:33:48;;;;;;;;;11.50;11.25;;;;;;;;6339258;22;46938;-83
2021/09/07 23:36:13;;;;;;;;;7.75;6.50;;;;;;;;6339977;22;46915;-84
2021/09/07 23:38:38;;;;;;;;;10.50;10.00;;;;;;;;6310459;22;48445;-83
2021/09/07 23:41:03;;;;;;;;;10.75;10.00;;;;;;;;6339634;22;46755;-83
2021/09/07 23:43:29;;;;;;;;;8.75;8.00;;;;;;;;6339642;22;46891;-83
2021/09/07 23:45:54;;;;;;;;;9.25;6.50;;;;;;;;6339243;22;46768;-83
2021/09/07 23:48:19;;;;;;;;;9.00;8.25;;;;;;;;6339157;22;47731;-84
2021/09/07 23:50:45;;;;;;;;;7.75;7.75;;;;;;;;6339250;22;46896;-83
2021/09/07 23:53:10;;;;;;;;;11.75;10.25;;;;;;;;6311311;22;46908;-84
2021/09/07 23:55:36;;;;;;;;;7.25;7.25;;;;;;;;6339975;22;46987;-83
2021/09/07 23:58:01;;;;;;;;;9.00;9.00;;;;;;;;6311062;22;48431;-83
